createdAt,value
2022-07-28T00:00:00.240Z,60.8
2022-07-28T00:02:02.088Z,60.66
2022-07-28T00:04:03.107Z,61.04
2022-07-28T00:06:04.145Z,60.6
2022-07-28T00:08:05.583Z,60.52
2022-07-28T00:10:06.804Z,60.76
2022-07-28T00:12:07.864Z,60.66
2022-07-28T00:14:09.720Z,60.69
2022-07-28T00:16:11.477Z,60.83
2022-07-28T00:18:12.744Z,61.09
2022-07-28T00:20:13.882Z,61.63
2022-07-28T00:22:15.779Z,61.59
2022-07-28T00:26:18.867Z,62.05
2022-07-28T00:28:19.975Z,62.51
2022-07-28T00:30:21.773Z,62.43
2022-07-28T00:32:23.293Z,62.49
2022-07-28T00:34:25.368Z,62.61
2022-07-28T00:36:26.480Z,63.02
2022-07-28T00:38:27.568Z,63.14
2022-07-28T00:40:29.189Z,63.31
2022-07-28T00:42:30.795Z,63.75
2022-07-28T00:44:32.442Z,64.19
2022-07-28T00:46:33.499Z,64.38
2022-07-28T00:48:34.995Z,64.05
2022-07-28T00:50:35.983Z,64.31
2022-07-28T00:52:37.729Z,64.69
2022-07-28T00:54:39.262Z,63.31
2022-07-28T00:58:42.699Z,63.77
2022-07-28T01:00:43.832Z,64.57
2022-07-28T01:02:45.528Z,65.43
2022-07-28T01:04:54.752Z,65.66
2022-07-28T01:08:49.255Z,66.55
2022-07-28T01:10:50.410Z,66.88
2022-07-28T01:12:51.851Z,66.84
2022-07-28T01:14:53.462Z,66.61
2022-07-28T01:16:54.425Z,66.1
2022-07-28T01:18:55.845Z,66
2022-07-28T01:20:57.415Z,65.72
2022-07-28T01:22:59.061Z,65.55
2022-07-28T01:25:00.936Z,65.66
2022-07-28T01:27:02.252Z,66.42
2022-07-28T01:29:04.150Z,67.22
2022-07-28T01:31:05.684Z,67.66
2022-07-28T01:33:06.590Z,67.96
2022-07-28T01:35:07.669Z,67.86
2022-07-28T01:37:09.407Z,67.83
2022-07-28T01:39:10.526Z,67.52
2022-07-28T01:41:11.685Z,67.17
2022-07-28T01:43:13.370Z,67.78
2022-07-28T01:45:14.977Z,68.09
2022-07-28T01:47:16.294Z,68.18
2022-07-28T01:49:17.821Z,67.8
2022-07-28T01:51:19.047Z,67.6
2022-07-28T01:53:20.090Z,67.81
2022-07-28T01:57:23.439Z,67.65
2022-07-28T01:59:25.079Z,67.84
2022-07-28T02:01:26.211Z,67.55
2022-07-28T02:03:27.868Z,67.29
2022-07-28T02:06:13.425Z,67.78
2022-07-28T02:08:14.703Z,68.23
2022-07-28T02:10:16.280Z,68.26
2022-07-28T02:12:17.840Z,67.86
2022-07-28T02:14:19.059Z,67.84
2022-07-28T02:16:20.720Z,67.66
2022-07-28T02:18:22.335Z,68.03
2022-07-28T02:20:24.259Z,68.65
2022-07-28T02:22:26.066Z,68.5
2022-07-28T02:24:26.986Z,69.03
2022-07-28T02:26:28.794Z,69.18
2022-07-28T02:28:30.007Z,69.86
2022-07-28T02:30:31.263Z,70.21
2022-07-28T02:32:32.515Z,70.73
2022-07-28T02:34:34.209Z,70.9
2022-07-28T02:36:35.298Z,71.18
2022-07-28T02:38:37.082Z,71.08
2022-07-28T02:40:38.210Z,71.05
2022-07-28T02:44:41.022Z,72.58
2022-07-28T02:46:42.719Z,72.56
2022-07-28T02:48:43.678Z,70.95
2022-07-28T02:50:45.402Z,70.64
2022-07-28T02:52:46.539Z,70.77
2022-07-28T02:54:48.019Z,71.68
2022-07-28T02:56:53.069Z,72.13
2022-07-28T02:58:50.717Z,72.2
2022-07-28T03:00:51.709Z,71.85
2022-07-28T03:02:53.406Z,71.7
2022-07-28T03:04:54.599Z,71.62
2022-07-28T03:06:56.411Z,71.33
2022-07-28T03:08:57.799Z,70.96
2022-07-28T03:10:59.434Z,71.08
2022-07-28T03:13:00.371Z,71.16
2022-07-28T03:17:03.353Z,72.45
2022-07-28T03:19:04.924Z,72.91
2022-07-28T03:21:06.684Z,73.12
2022-07-28T03:27:10.991Z,72
2022-07-28T03:29:12.198Z,71.45
2022-07-28T03:31:13.448Z,71.5
2022-07-28T03:38:24.547Z,72.14
2022-07-28T03:39:25.689Z,72.99
2022-07-28T03:42:34.533Z,73.06
2022-07-28T03:43:24.241Z,73.26
2022-07-28T03:45:26.992Z,73.15
2022-07-28T03:47:25.679Z,73.17
2022-07-28T03:49:27.011Z,74.26
2022-07-28T03:51:28.341Z,74.27
2022-07-28T03:53:29.370Z,75.11
2022-07-28T03:55:30.739Z,74.05
2022-07-28T03:59:33.622Z,73.76
2022-07-28T04:01:35.107Z,73.95
2022-07-28T04:03:43.500Z,73.87
2022-07-28T04:05:38.473Z,74.49
2022-07-28T04:09:41.100Z,74.78
2022-07-28T04:11:42.187Z,74.56
2022-07-28T04:13:43.519Z,74.02
2022-07-28T04:15:44.715Z,73.42
2022-07-28T04:17:46.569Z,73.12
2022-07-28T04:19:48.276Z,72.69
2022-07-28T04:21:49.567Z,72.47
2022-07-28T04:23:50.810Z,72.39
2022-07-28T04:25:52.619Z,72.84
2022-07-28T04:27:53.940Z,73.65
2022-07-28T04:29:54.981Z,74.4
2022-07-28T04:31:55.876Z,74.47
2022-07-28T04:33:57.518Z,75.54
2022-07-28T04:35:59.372Z,74.9
2022-07-28T04:38:01.210Z,75.17
2022-07-28T04:40:02.332Z,75.42
2022-07-28T04:42:03.509Z,75.99
2022-07-28T04:44:05.048Z,75.34
2022-07-28T04:46:06.064Z,74.96
2022-07-28T04:48:07.157Z,74.24
2022-07-28T04:50:08.393Z,75.66
2022-07-28T04:52:10.055Z,76.23
2022-07-28T04:54:11.880Z,74.68
2022-07-28T04:56:12.662Z,73.6
2022-07-28T04:58:13.676Z,73.93
2022-07-28T05:00:15.444Z,73.54
2022-07-28T05:02:16.446Z,73.37
2022-07-28T05:04:18.197Z,73.35
2022-07-28T05:08:20.565Z,73.71
2022-07-28T05:10:22.182Z,74.09
2022-07-28T05:12:24.277Z,73.53
2022-07-28T05:14:24.996Z,73.18
2022-07-28T05:16:26.239Z,72.8
2022-07-28T05:18:27.329Z,72.71
2022-07-28T05:20:28.627Z,70.7
2022-07-28T05:22:29.565Z,70.39
2022-07-28T05:24:30.741Z,69.42
2022-07-28T05:26:32.080Z,69.43
2022-07-28T05:28:33.262Z,69.34
2022-07-28T05:30:34.961Z,69.97
2022-07-28T05:32:36.239Z,71.05
2022-07-28T05:34:37.429Z,70.91
2022-07-28T05:36:39.104Z,70.36
2022-07-28T05:40:41.385Z,67.53
2022-07-28T05:42:42.517Z,67.26
2022-07-28T05:44:43.767Z,67.81
2022-07-28T05:46:45.171Z,68.91
2022-07-28T05:50:47.934Z,67.71
2022-07-28T05:52:49.120Z,66.71
2022-07-28T05:54:50.464Z,67.2
2022-07-28T05:56:52.303Z,67.61
2022-07-28T05:58:53.771Z,67.83
2022-07-28T06:00:55.444Z,66.88
2022-07-28T06:02:56.433Z,65.5
2022-07-28T06:04:57.463Z,64.85
2022-07-28T06:06:58.780Z,64.96
2022-07-28T06:09:00.329Z,64.68
2022-07-28T06:11:01.957Z,65.32
2022-07-28T06:13:03.735Z,65.23
2022-07-28T06:15:04.930Z,65.81
2022-07-28T06:17:05.872Z,64.68
2022-07-28T06:19:06.991Z,64.57
2022-07-28T06:21:09.155Z,62.44
2022-07-28T06:23:10.667Z,62.51
2022-07-28T06:25:11.568Z,61
2022-07-28T06:27:12.533Z,59.03
2022-07-28T06:29:14.066Z,56.31
2022-07-28T06:31:14.965Z,55.62
2022-07-28T06:33:17.331Z,57.04
2022-07-28T06:35:18.122Z,57.31
2022-07-28T06:39:20.738Z,57.93
2022-07-28T06:41:21.568Z,58.26
2022-07-28T06:43:22.710Z,58.91
2022-07-28T06:45:24.063Z,57.71
2022-07-28T06:49:26.367Z,58.44
2022-07-28T06:51:27.144Z,58.21
2022-07-28T06:53:33.557Z,58.86
2022-07-28T06:55:38.023Z,58.58
2022-07-28T06:57:33.481Z,57.03
2022-07-28T06:59:33.484Z,57.76
2022-07-28T07:01:35.055Z,56.63
2022-07-28T07:03:36.455Z,55.53
2022-07-28T07:05:38.018Z,55.32
2022-07-28T07:07:43.203Z,54.54
2022-07-28T07:09:40.985Z,54.29
2022-07-28T07:11:42.005Z,54.89
2022-07-28T07:13:43.538Z,55.61
2022-07-28T07:15:44.510Z,54.68
2022-07-28T07:17:45.478Z,54.53
2022-07-28T07:19:46.789Z,54.37
2022-07-28T07:21:48.460Z,55.35
2022-07-28T07:23:50.011Z,54.11
2022-07-28T07:25:51.492Z,53.06
2022-07-28T07:27:53.178Z,53.17
2022-07-28T07:31:55.989Z,52.21
2022-07-28T07:33:57.617Z,52.49
2022-07-28T07:35:58.680Z,52.74
2022-07-28T07:38:00.274Z,53.28
2022-07-28T07:40:02.228Z,52.05
2022-07-28T07:42:03.202Z,52.62
2022-07-28T07:44:04.453Z,50.63
2022-07-28T07:46:06.230Z,50.42
2022-07-28T07:48:07.690Z,50.53
2022-07-28T07:50:08.716Z,52.21
2022-07-28T07:52:10.200Z,51.88
2022-07-28T07:54:11.878Z,50.74
2022-07-28T07:56:12.532Z,49.76
2022-07-28T07:58:13.633Z,49.31
2022-07-28T08:00:28.478Z,50.43
2022-07-28T08:02:17.004Z,50.82
2022-07-28T08:04:18.910Z,48.7
2022-07-28T08:06:26.417Z,48.56
2022-07-28T08:08:20.995Z,49.85
2022-07-28T08:10:22.341Z,48.43
2022-07-28T08:14:25.299Z,47.84
2022-07-28T08:16:26.724Z,47.55
2022-07-28T08:20:29.820Z,48.1
2022-07-28T08:22:31.441Z,47.38
2022-07-28T08:24:33.216Z,47.16
2022-07-28T08:26:33.437Z,46.56
2022-07-28T08:30:35.328Z,47.25
2022-07-28T08:32:36.930Z,45.43
2022-07-28T08:34:38.539Z,45.63
2022-07-28T08:36:39.277Z,46.41
2022-07-28T08:38:40.567Z,46.19
2022-07-28T08:40:42.002Z,45.54
2022-07-28T08:42:43.160Z,45.79
2022-07-28T08:44:44.062Z,45.56
2022-07-28T08:46:45.117Z,45.5
2022-07-28T08:48:46.598Z,45.51
2022-07-28T08:50:47.398Z,44.94
2022-07-28T08:53:33.498Z,45.43
2022-07-28T08:55:44.019Z,44.01
2022-07-28T08:57:36.373Z,44.98
2022-07-28T08:59:37.690Z,43.91
2022-07-28T09:01:39.377Z,44.48
2022-07-28T09:05:41.747Z,44.93
2022-07-28T09:07:42.698Z,44.98
2022-07-28T09:09:43.501Z,44.94
2022-07-28T09:11:45.032Z,44.16
2022-07-28T09:13:46.723Z,44.56
2022-07-28T09:15:47.456Z,43.82
2022-07-28T09:17:49.047Z,43.84
2022-07-28T09:19:50.536Z,42.9
2022-07-28T09:21:52.113Z,43.48
2022-07-28T09:23:53.543Z,43.65
2022-07-28T09:25:54.836Z,43.86
2022-07-28T09:27:56.311Z,43.66
2022-07-28T09:29:57.768Z,43.07
2022-07-28T09:31:59.113Z,43.23
2022-07-28T09:34:00.477Z,42.73
2022-07-28T09:36:02.170Z,42.67
2022-07-28T09:40:04.284Z,42.78
2022-07-28T09:42:05.036Z,43.15
2022-07-28T09:44:05.845Z,41.65
2022-07-28T09:46:07.475Z,41.19
2022-07-28T09:50:09.901Z,41.58
2022-07-28T09:52:10.671Z,42.07
2022-07-28T09:56:12.895Z,41.49
2022-07-28T09:58:14.543Z,42.2
2022-07-28T10:00:15.902Z,40.48
2022-07-28T10:02:17.398Z,40.27
2022-07-28T10:06:20.235Z,40.89
2022-07-28T10:08:21.634Z,39.04
2022-07-28T10:10:23.215Z,39.03
2022-07-28T10:12:24.681Z,38.73
2022-07-28T10:14:25.546Z,38.28
2022-07-28T10:16:27.485Z,39.14
2022-07-28T10:18:29.064Z,39.36
2022-07-28T10:20:30.071Z,38.84
2022-07-28T10:22:31.466Z,38.22
2022-07-28T10:24:33.123Z,37.8
2022-07-28T10:30:36.824Z,38.17
2022-07-28T10:32:38.131Z,36.68
2022-07-28T10:34:39.194Z,36.76
2022-07-28T10:36:40.097Z,36.56
2022-07-28T10:38:41.552Z,37.42
2022-07-28T10:40:43.119Z,37.73
2022-07-28T10:42:43.973Z,37.23
2022-07-28T10:44:45.044Z,35.51
2022-07-28T10:46:46.838Z,36.27
2022-07-28T10:48:48.189Z,35.53
2022-07-28T10:50:49.858Z,36.37
2022-07-28T10:52:53.572Z,36.36
2022-07-28T10:54:52.259Z,37.02
2022-07-28T10:56:53.641Z,36.52
2022-07-28T10:58:55.047Z,35.8
2022-07-28T11:00:58.108Z,34.9
2022-07-28T11:02:57.567Z,34.76
2022-07-28T11:04:58.414Z,34.83
2022-07-28T11:06:59.505Z,35.01
2022-07-28T11:09:01.059Z,35.75
2022-07-28T11:11:09.271Z,36.74
2022-07-28T11:13:03.993Z,36
2022-07-28T11:15:15.986Z,36.35
2022-07-28T11:17:05.767Z,34.64
2022-07-28T11:19:07.570Z,34.63
2022-07-28T11:21:08.059Z,33.6
2022-07-28T11:23:08.977Z,35.46
2022-07-28T11:25:20.191Z,34.98
2022-07-28T11:27:10.874Z,35.13
2022-07-28T11:29:12.383Z,35.3
2022-07-28T11:31:13.831Z,36.17
2022-07-28T11:33:15.321Z,35.44
2022-07-28T11:35:16.359Z,35.85
2022-07-28T11:37:17.209Z,35.09
2022-07-28T11:39:18.402Z,34.25
2022-07-28T11:41:19.579Z,33.57
2022-07-28T11:43:21.986Z,34.83
2022-07-28T11:45:22.251Z,34.87
2022-07-28T11:47:23.547Z,34.83
2022-07-28T11:51:25.685Z,34.01
2022-07-28T11:53:27.219Z,33.6
2022-07-28T11:55:49.497Z,34.11
2022-07-28T11:59:36.817Z,36.05
2022-07-28T12:01:32.427Z,35.89
2022-07-28T12:03:38.401Z,35.34
2022-07-28T12:05:41.619Z,35.76
2022-07-28T12:07:35.853Z,35.34
2022-07-28T12:09:42.422Z,34.78
2022-07-28T12:11:39.025Z,34.21
2022-07-28T12:13:39.854Z,33.6
2022-07-28T12:17:42.913Z,33.28
2022-07-28T12:19:44.384Z,32.88
2022-07-28T12:21:47.413Z,32.55
2022-07-28T12:23:49.577Z,32.5
2022-07-28T12:25:48.104Z,30.77
2022-07-28T12:27:48.956Z,31.52
2022-07-28T12:29:49.833Z,33.21
2022-07-28T12:31:51.376Z,33.48
2022-07-28T12:33:53.600Z,34.09
2022-07-28T12:35:53.931Z,35.13
2022-07-28T12:39:56.725Z,34.03
2022-07-28T12:41:57.597Z,34.33
2022-07-28T12:43:59.207Z,34.35
2022-07-28T12:46:00.166Z,33.75
2022-07-28T12:48:00.874Z,32.9
2022-07-28T12:50:06.568Z,34.54
2022-07-28T12:52:03.932Z,33.98
2022-07-28T12:54:05.380Z,33.56
2022-07-28T12:56:06.225Z,33.48
2022-07-28T12:58:07.298Z,33.91
2022-07-28T13:00:08.676Z,34.86
2022-07-28T13:02:10.164Z,34.28
2022-07-28T13:04:11.235Z,33.66
2022-07-28T13:06:12.719Z,34.36
2022-07-28T13:08:14.097Z,34.1
2022-07-28T13:10:15.715Z,34.84
2022-07-28T13:12:17.165Z,34.48
2022-07-28T13:14:18.660Z,33.87
2022-07-28T13:16:19.940Z,34.53
2022-07-28T13:18:21.275Z,33.72
2022-07-28T13:20:22.544Z,33.13
2022-07-28T13:22:23.622Z,33.73
2022-07-28T13:24:24.883Z,33.41
2022-07-28T13:26:25.669Z,32.91
2022-07-28T13:28:26.894Z,31.28
2022-07-28T13:30:28.189Z,32.03
2022-07-28T13:32:29.436Z,30.25
2022-07-28T13:34:30.134Z,29.46
2022-07-28T13:36:30.888Z,32.5
2022-07-28T13:38:32.040Z,30.17
2022-07-28T13:40:33.018Z,30.89
2022-07-28T13:42:34.542Z,30.4
2022-07-28T13:44:35.932Z,30.07
2022-07-28T13:48:38.203Z,32.47
2022-07-28T13:50:39.209Z,33.13
2022-07-28T13:52:39.934Z,32.79
2022-07-28T13:54:41.481Z,32.86
2022-07-28T13:58:44.492Z,33.08
2022-07-28T14:00:45.812Z,32.43
2022-07-28T14:02:47.334Z,32.08
2022-07-28T14:04:50.330Z,31.75
2022-07-28T14:06:50.514Z,32.37
2022-07-28T14:08:52.783Z,32.07
2022-07-28T14:10:52.366Z,31.66
2022-07-28T14:12:53.693Z,32.07
2022-07-28T14:14:54.561Z,31.27
2022-07-28T14:16:55.691Z,31.72
2022-07-28T14:18:56.757Z,32.06
2022-07-28T14:20:58.478Z,32.04
2022-07-28T14:22:59.322Z,31.77
2022-07-28T14:25:00.752Z,32.12
2022-07-28T14:27:01.428Z,32.08
2022-07-28T14:29:03.228Z,31.9
2022-07-28T14:31:04.457Z,31.88
2022-07-28T14:33:05.791Z,31.99
2022-07-28T14:35:07.271Z,30.85
2022-07-28T14:37:08.776Z,31.64
2022-07-28T14:41:10.714Z,30.98
2022-07-28T14:43:12.729Z,31.23
2022-07-28T14:45:13.743Z,30.22
2022-07-28T14:47:15.692Z,31.68
2022-07-28T14:49:16.952Z,29.53
2022-07-28T14:51:18.117Z,29.49
2022-07-28T14:53:19.610Z,31.1
2022-07-28T14:55:20.626Z,30.97
2022-07-28T14:57:24.436Z,31.07
2022-07-28T14:59:22.820Z,30.15
2022-07-28T15:01:24.157Z,30.8
2022-07-28T15:03:25.737Z,30.74
2022-07-28T15:05:27.221Z,31.64
2022-07-28T15:07:28.059Z,31.93
2022-07-28T15:09:29.077Z,31.16
2022-07-28T15:11:29.909Z,31.06
2022-07-28T15:13:31.410Z,30.85
2022-07-28T15:15:32.314Z,30.79
2022-07-28T15:17:33.995Z,31.53
2022-07-28T15:19:35.307Z,31.64
2022-07-28T15:21:36.674Z,32.06
2022-07-28T15:23:38.401Z,31.93
2022-07-28T15:25:39.182Z,32.05
2022-07-28T15:29:41.344Z,31.58
2022-07-28T15:31:43.450Z,32.1
2022-07-28T15:33:47.961Z,32.5
2022-07-28T15:35:57.861Z,32.78
2022-07-28T15:38:31.790Z,33.18
2022-07-28T15:40:31.587Z,32.86
2022-07-28T15:42:32.760Z,32.39
2022-07-28T15:44:34.104Z,33.18
2022-07-28T15:46:35.191Z,32.37
2022-07-28T15:48:36.249Z,33.02
2022-07-28T15:50:37.211Z,32.95
2022-07-28T15:52:38.300Z,33.25
2022-07-28T15:54:40.589Z,32.41
2022-07-28T15:56:41.788Z,32.05
2022-07-28T15:58:42.926Z,32.26
2022-07-28T16:00:44.606Z,32.42
2022-07-28T16:02:45.558Z,32.74
2022-07-28T16:04:48.943Z,32.19
2022-07-28T16:06:48.052Z,32.43
2022-07-28T16:08:49.425Z,32.46
2022-07-28T16:10:50.245Z,32.22
2022-07-28T16:16:53.629Z,31.6
2022-07-28T16:19:02.804Z,32.24
2022-07-28T16:20:55.796Z,32.2
2022-07-28T16:22:57.337Z,32.44
2022-07-28T16:24:58.308Z,32.55
2022-07-28T16:26:59.818Z,32.54
2022-07-28T16:29:00.773Z,32.78
2022-07-28T16:31:01.861Z,32.76
2022-07-28T16:33:03.579Z,32.8
2022-07-28T16:35:05.252Z,32.95
2022-07-28T16:37:06.316Z,32.28
2022-07-28T16:39:07.354Z,31.37
2022-07-28T16:41:08.300Z,31.52
2022-07-28T16:43:09.720Z,31.36
2022-07-28T16:47:12.248Z,31.46
2022-07-28T16:49:13.616Z,30.65
2022-07-28T16:51:14.363Z,31.5
2022-07-28T16:53:15.942Z,30.7
2022-07-28T16:55:21.491Z,30.85
2022-07-28T16:57:18.971Z,30.8
2022-07-28T16:59:20.616Z,30.52
2022-07-28T17:01:21.663Z,29.88
2022-07-28T17:03:22.749Z,31.15
2022-07-28T17:05:24.221Z,30.35
2022-07-28T17:07:25.800Z,31.26
2022-07-28T17:09:26.619Z,31.58
2022-07-28T17:11:28.356Z,31.63
2022-07-28T17:13:29.982Z,31.74
2022-07-28T17:15:30.935Z,32.87
2022-07-28T17:17:32.231Z,32.27
2022-07-28T17:21:34.562Z,32.83
2022-07-28T17:23:36.489Z,32.46
2022-07-28T17:25:59.504Z,33.72
2022-07-28T17:27:39.718Z,33.24
2022-07-28T17:29:39.964Z,33.26
2022-07-28T17:31:41.426Z,33.68
2022-07-28T17:33:43.134Z,33.56
2022-07-28T17:35:43.951Z,33.4
2022-07-28T17:37:44.828Z,33.51
2022-07-28T17:39:45.831Z,34.24
2022-07-28T17:41:47.506Z,34.36
2022-07-28T17:43:48.932Z,34.21
2022-07-28T17:45:50.375Z,34.41
2022-07-28T17:47:51.866Z,34.38
2022-07-28T17:49:52.796Z,34.6
2022-07-28T17:51:54.204Z,35.15
2022-07-28T17:53:55.505Z,34.73
2022-07-28T17:56:00.964Z,35
2022-07-28T17:57:58.041Z,34.84
2022-07-28T17:59:59.215Z,35.24
2022-07-28T18:02:01.120Z,35.44
2022-07-28T18:04:02.669Z,34.98
2022-07-28T18:06:03.797Z,34.81
2022-07-28T18:08:05.065Z,35.53
2022-07-28T18:10:06.254Z,35.38
2022-07-28T18:12:07.535Z,35.35
2022-07-28T18:14:08.915Z,35.45
2022-07-28T18:16:10.232Z,35.62
2022-07-28T18:18:11.153Z,35.91
2022-07-28T18:20:12.243Z,36
2022-07-28T18:22:14.030Z,36
2022-07-28T18:24:15.686Z,36.51
2022-07-28T18:26:17.013Z,36.75
2022-07-28T18:28:18.002Z,36.78
2022-07-28T18:30:18.888Z,37.17
2022-07-28T18:32:19.809Z,37.17
2022-07-28T18:34:23.270Z,37.19
2022-07-28T18:36:22.950Z,37.24
2022-07-28T18:38:24.334Z,37.44
2022-07-28T18:40:26.091Z,37.51
2022-07-28T18:42:26.923Z,37.65
2022-07-28T18:44:28.215Z,37.68
2022-07-28T18:46:29.850Z,37.67
2022-07-28T18:48:31.371Z,37.84
2022-07-28T18:50:33.145Z,38.34
2022-07-28T18:52:34.923Z,38.68
2022-07-28T18:54:36.303Z,38.78
2022-07-28T18:56:38.115Z,39.15
2022-07-28T18:58:39.870Z,39.27
2022-07-28T19:00:40.828Z,39.5
2022-07-28T19:02:42.509Z,39.69
2022-07-28T19:04:43.558Z,40.01
2022-07-28T19:06:44.687Z,40.37
2022-07-28T19:08:46.275Z,40.74
2022-07-28T19:10:47.968Z,41.06
2022-07-28T19:12:49.281Z,41.32
2022-07-28T19:14:51.004Z,41.75
2022-07-28T19:16:52.421Z,41.64
2022-07-28T19:18:53.950Z,41.84
2022-07-28T19:20:55.698Z,42.18
2022-07-28T19:22:58.163Z,42.06
2022-07-28T19:24:58.659Z,42.75
2022-07-28T19:29:00.800Z,43.03
2022-07-28T19:31:08.076Z,43.08
2022-07-28T19:33:03.771Z,43.16
2022-07-28T19:35:05.351Z,43.43
2022-07-28T19:39:08.227Z,43.65
2022-07-28T19:41:09.569Z,44.16
2022-07-28T19:43:11.097Z,44.14
2022-07-28T19:45:12.862Z,44.49
2022-07-28T19:47:14.266Z,44.36
2022-07-28T19:49:15.669Z,44.73
2022-07-28T19:51:16.596Z,44.57
2022-07-28T19:53:17.680Z,44.73
2022-07-28T19:55:18.903Z,44.78
2022-07-28T19:57:20.574Z,44.52
2022-07-28T19:59:21.793Z,44.26
2022-07-28T20:01:22.915Z,44.31
2022-07-28T20:04:00.341Z,44.69
2022-07-28T20:05:25.444Z,44.68
2022-07-28T20:07:26.870Z,44.79
2022-07-28T20:09:27.815Z,44.9
2022-07-28T20:11:29.208Z,44.77
2022-07-28T20:13:30.256Z,44.81
2022-07-28T20:15:31.108Z,45.01
2022-07-28T20:17:38.344Z,44.72
2022-07-28T20:21:38.317Z,44.49
2022-07-28T20:23:36.676Z,44.56
2022-07-28T20:25:37.689Z,44.67
2022-07-28T20:27:40.114Z,44.73
2022-07-28T20:29:39.659Z,44.32
2022-07-28T20:31:40.587Z,43.93
2022-07-28T20:33:41.495Z,43.77
2022-07-28T20:35:42.376Z,43.98
2022-07-28T20:37:43.685Z,43.99
2022-07-28T20:39:45.542Z,44.63
2022-07-28T20:41:46.251Z,45.53
2022-07-28T20:43:59.882Z,46.18
2022-07-28T20:45:49.616Z,46.55
2022-07-28T20:47:50.676Z,46.95
2022-07-28T20:49:52.412Z,47.4
2022-07-28T20:51:53.475Z,47.64
2022-07-28T20:53:54.352Z,47.58
2022-07-28T20:55:55.231Z,47.53
2022-07-28T20:57:56.378Z,47.39
2022-07-28T20:59:57.911Z,47.42
2022-07-28T21:01:59.169Z,47.51
2022-07-28T21:04:00.073Z,46.66
2022-07-28T21:06:01.831Z,46.77
2022-07-28T21:08:05.605Z,47.05
2022-07-28T21:10:04.374Z,47.54
2022-07-28T21:12:05.567Z,47.31
2022-07-28T21:14:07.013Z,47.53
2022-07-28T21:16:08.458Z,48.05
2022-07-28T21:18:10.144Z,48.31
2022-07-28T21:20:11.940Z,48.91
2022-07-28T21:22:13.000Z,49.14
2022-07-28T21:24:14.478Z,49.31
2022-07-28T21:26:15.223Z,49.77
2022-07-28T21:28:16.308Z,49.49
2022-07-28T21:30:18.133Z,49.13
2022-07-28T21:32:19.196Z,49.81
2022-07-28T21:34:20.838Z,49.34
2022-07-28T21:36:21.752Z,49.5
2022-07-28T21:38:23.343Z,49.77
2022-07-28T21:40:24.322Z,50.21
2022-07-28T21:42:25.576Z,50.51
2022-07-28T21:44:27.141Z,50.55
2022-07-28T21:46:28.123Z,49.47
2022-07-28T21:48:29.297Z,49.6
2022-07-28T21:50:30.975Z,49.39
2022-07-28T21:52:32.275Z,48.95
2022-07-28T21:54:33.767Z,49.13
2022-07-28T21:56:34.937Z,48.61
2022-07-28T21:58:36.153Z,48.93
2022-07-28T22:02:38.841Z,48.61
2022-07-28T22:04:39.862Z,48.61
2022-07-28T22:06:41.165Z,48.98
2022-07-28T22:08:42.056Z,48.61
2022-07-28T22:10:43.782Z,48.51
2022-07-28T22:12:45.395Z,48.72
2022-07-28T22:14:46.508Z,48.72
2022-07-28T22:16:48.144Z,49.16
2022-07-28T22:18:49.525Z,48.81
2022-07-28T22:20:51.101Z,48.73
2022-07-28T22:22:52.657Z,49.22
2022-07-28T22:25:37.641Z,49.34
2022-07-28T22:27:39.373Z,49.1
2022-07-28T22:29:40.441Z,49.15
2022-07-28T22:31:41.384Z,49.29
2022-07-28T22:33:42.249Z,49.03
2022-07-28T22:35:43.441Z,49.43
2022-07-28T22:37:44.278Z,49.51
2022-07-28T22:39:45.404Z,49.86
2022-07-28T22:41:47.200Z,50.1
2022-07-28T22:43:48.870Z,50.16
2022-07-28T22:45:51.565Z,50.74
2022-07-28T22:47:51.711Z,50.46
2022-07-28T22:49:53.045Z,50.4
2022-07-28T22:51:54.259Z,50.58
2022-07-28T22:55:57.119Z,53.93
2022-07-28T22:58:01.981Z,55.86
2022-07-28T22:59:59.989Z,56.42
2022-07-28T23:02:01.340Z,56.45
2022-07-28T23:04:02.730Z,55.81
2022-07-28T23:06:04.214Z,55.96
2022-07-28T23:08:05.737Z,55.96
2022-07-28T23:10:06.902Z,56.27
2022-07-28T23:12:08.063Z,56.51
2022-07-28T23:14:09.330Z,55.85
2022-07-28T23:16:10.584Z,56.24
2022-07-28T23:18:12.277Z,54.63
2022-07-28T23:20:13.982Z,54.99
2022-07-28T23:22:14.970Z,55.33
2022-07-28T23:24:16.762Z,55.15
2022-07-28T23:28:19.298Z,56.26
2022-07-28T23:30:20.392Z,55.72
2022-07-28T23:32:21.696Z,55.62
2022-07-28T23:34:22.940Z,54.85
2022-07-28T23:38:25.444Z,54.29
2022-07-28T23:40:26.653Z,54.96
2022-07-28T23:44:29.929Z,54.52
2022-07-28T23:46:31.563Z,55.45
2022-07-28T23:48:33.254Z,55.79
2022-07-28T23:50:34.206Z,55.66
2022-07-28T23:54:36.887Z,55.1
2022-07-28T23:56:38.328Z,54.99
2022-07-28T23:58:39.766Z,54.81
